Time;durP1;ratioP1;P1;durP2;ratioP2;P2;SDS_P1;SDS_P2;PMS_P1;PMS_P2;Temp;Humidity;BMP_temperature;BMP_pressure;BME280_temperature;BME280_humidity;BME280_pressure;Samples;Min_cycle;Max_cycle;Signal;HPM_P1;HPM_P2
2023/09/28 00:00:53;;;;;;;4.20;3.53;;;;;;;;;;5102104;28;20940;-63
2023/09/28 00:03:22;;;;;;;4.25;3.60;;;;;;;;;;5102993;28;20405;-63
2023/09/28 00:05:48;;;;;;;5.72;3.40;;;;;;;;;;5106154;28;20411;-63
2023/09/28 00:08:16;;;;;;;3.75;3.20;;;;;;;;;;5102279;28;20938;-63
2023/09/28 00:10:42;;;;;;;5.55;3.70;;;;;;;;;;5104832;28;20414;-64
2023/09/28 00:13:09;;;;;;;5.50;3.72;;;;;;;;;;5100351;28;20531;-64
2023/09/28 00:15:37;;;;;;;4.82;3.30;;;;;;;;;;5097415;28;20828;-63
2023/09/28 00:18:04;;;;;;;3.72;3.33;;;;;;;;;;5098960;27;20471;-63
2023/09/28 00:20:31;;;;;;;4.28;3.45;;;;;;;;;;5100665;28;20412;-64
2023/09/28 00:22:59;;;;;;;5.22;3.28;;;;;;;;;;5097153;28;20508;-63
2023/09/28 00:25:25;;;;;;;4.07;3.58;;;;;;;;;;5096730;28;20481;-63
2023/09/28 00:27:55;;;;;;;4.95;3.38;;;;;;;;;;5099054;28;20902;-63
2023/09/28 00:30:22;;;;;;;4.88;3.70;;;;;;;;;;5104433;28;20408;-64
2023/09/28 00:32:49;;;;;;;4.43;3.50;;;;;;;;;;5102952;28;20406;-63
2023/09/28 00:35:16;;;;;;;5.95;3.20;;;;;;;;;;5105614;28;20404;-63
2023/09/28 00:37:44;;;;;;;5.07;3.70;;;;;;;;;;5101795;28;20470;-63
2023/09/28 00:40:18;;;;;;;3.88;3.30;;;;;;;;;;5102578;28;20471;-63
2023/09/28 00:42:44;;;;;;;4.70;3.88;;;;;;;;;;5092841;28;20509;-63
2023/09/28 00:45:11;;;;;;;5.50;3.45;;;;;;;;;;5092597;28;20418;-63
2023/09/28 00:47:38;;;;;;;4.22;3.10;;;;;;;;;;5092577;28;20406;-63
2023/09/28 00:50:09;;;;;;;5.53;3.60;;;;;;;;;;5092673;28;20406;-63
2023/09/28 00:52:35;;;;;;;3.73;3.33;;;;;;;;;;5092422;28;20919;-63
2023/09/28 00:55:04;;;;;;;5.35;3.40;;;;;;;;;;5103003;28;20563;-64
2023/09/28 00:57:33;;;;;;;4.30;3.08;;;;;;;;;;5098901;28;20408;-63
2023/09/28 01:00:00;;;;;;;5.60;3.33;;;;;;;;;;5102144;28;20414;-64
2023/09/28 01:02:26;;;;;;;5.38;3.38;;;;;;;;;;5101448;28;20455;-63
2023/09/28 01:04:53;;;;;;;4.07;3.20;;;;;;;;;;5104413;28;21054;-63
2023/09/28 01:07:26;;;;;;;5.20;3.10;;;;;;;;;;5102381;28;20415;-63
2023/09/28 01:09:54;;;;;;;4.47;3.33;;;;;;;;;;5101108;28;20779;-63
2023/09/28 01:12:25;;;;;;;4.18;3.33;;;;;;;;;;5102046;28;20501;-63
2023/09/28 01:14:53;;;;;;;3.65;2.80;;;;;;;;;;5103561;28;20408;-63
2023/09/28 01:17:20;;;;;;;3.80;2.83;;;;;;;;;;5106751;28;20431;-63
2023/09/28 01:19:46;;;;;;;4.45;3.17;;;;;;;;;;5101003;28;20822;-63
2023/09/28 01:22:15;;;;;;;4.17;2.73;;;;;;;;;;5104763;28;20409;-63
2023/09/28 01:24:41;;;;;;;5.45;3.10;;;;;;;;;;5103072;28;20471;-63
2023/09/28 01:27:09;;;;;;;3.50;2.95;;;;;;;;;;5095059;28;20441;-63
2023/09/28 01:29:35;;;;;;;4.50;2.90;;;;;;;;;;5101510;28;20926;-63
2023/09/28 01:32:03;;;;;;;4.63;3.10;;;;;;;;;;5103923;28;20439;-63
2023/09/28 01:34:29;;;;;;;3.40;2.85;;;;;;;;;;5102804;28;20501;-63
2023/09/28 01:36:56;;;;;;;3.63;2.83;;;;;;;;;;5103515;28;20405;-63
2023/09/28 01:39:23;;;;;;;3.13;2.83;;;;;;;;;;5102592;28;20457;-64
2023/09/28 01:41:50;;;;;;;4.28;2.85;;;;;;;;;;5102554;28;20412;-63
2023/09/28 01:44:16;;;;;;;4.22;3.22;;;;;;;;;;5100257;28;20933;-65
2023/09/28 01:46:43;;;;;;;4.00;2.90;;;;;;;;;;5102610;28;20769;-64
2023/09/28 01:49:09;;;;;;;6.43;3.17;;;;;;;;;;5103196;28;20405;-63
2023/09/28 01:51:36;;;;;;;4.67;3.10;;;;;;;;;;5100857;28;20471;-63
2023/09/28 01:54:02;;;;;;;3.53;2.60;;;;;;;;;;5103319;28;20427;-64
2023/09/28 01:56:31;;;;;;;3.50;2.72;;;;;;;;;;5096068;28;20909;-64
2023/09/28 01:58:57;;;;;;;3.78;2.90;;;;;;;;;;5098919;28;20400;-64
2023/09/28 02:01:26;;;;;;;3.40;2.97;;;;;;;;;;5099137;28;20441;-63
2023/09/28 02:03:52;;;;;;;4.07;2.65;;;;;;;;;;5101901;28;20420;-64
2023/09/28 02:06:19;;;;;;;4.70;2.97;;;;;;;;;;5102133;28;20495;-64
2023/09/28 02:08:45;;;;;;;4.57;2.90;;;;;;;;;;5099095;28;20416;-63
2023/09/28 02:11:13;;;;;;;4.15;2.88;;;;;;;;;;5098448;28;20439;-63
2023/09/28 02:13:41;;;;;;;6.32;3.20;;;;;;;;;;5102352;28;20400;-63
2023/09/28 02:16:11;;;;;;;3.20;2.90;;;;;;;;;;5100550;28;20413;-63
2023/09/28 02:18:40;;;;;;;4.57;3.00;;;;;;;;;;5096893;28;20402;-63
2023/09/28 02:21:11;;;;;;;6.07;2.97;;;;;;;;;;5101707;28;20420;-63
2023/09/28 02:23:38;;;;;;;4.60;3.10;;;;;;;;;;5099524;28;20410;-63
2023/09/28 02:26:05;;;;;;;5.05;2.72;;;;;;;;;;5094322;28;20782;-63
2023/09/28 02:28:32;;;;;;;5.82;2.85;;;;;;;;;;5102297;28;20447;-63
2023/09/28 02:31:05;;;;;;;4.45;3.05;;;;;;;;;;5099777;28;20406;-63
2023/09/28 02:33:31;;;;;;;5.00;3.22;;;;;;;;;;5103583;28;20436;-63
2023/09/28 02:35:58;;;;;;;4.47;3.10;;;;;;;;;;5099364;28;20410;-63
2023/09/28 02:38:25;;;;;;;4.45;2.70;;;;;;;;;;5100738;28;20420;-63
2023/09/28 02:40:51;;;;;;;4.00;2.97;;;;;;;;;;5101827;28;21153;-63
2023/09/28 02:43:18;;;;;;;3.95;2.95;;;;;;;;;;5100302;28;20761;-63
2023/09/28 02:45:45;;;;;;;5.45;3.17;;;;;;;;;;5099913;28;20471;-63
2023/09/28 02:48:13;;;;;;;4.80;2.92;;;;;;;;;;5102047;28;20411;-63
2023/09/28 02:50:39;;;;;;;4.37;3.10;;;;;;;;;;5101540;28;20403;-63
2023/09/28 02:53:08;;;;;;;4.78;3.20;;;;;;;;;;5102277;28;20431;-63
2023/09/28 02:55:35;;;;;;;4.80;2.75;;;;;;;;;;5100426;28;20404;-63
2023/09/28 02:58:02;;;;;;;4.45;3.13;;;;;;;;;;5103491;28;20821;-64
2023/09/28 03:00:32;;;;;;;5.32;3.47;;;;;;;;;;5101128;28;20401;-63
2023/09/28 03:03:00;;;;;;;4.07;3.10;;;;;;;;;;5099286;28;20813;-63
2023/09/28 03:05:30;;;;;;;3.40;2.67;;;;;;;;;;5099221;28;20468;-63
2023/09/28 03:07:58;;;;;;;4.88;3.28;;;;;;;;;;5095774;28;20410;-64
2023/09/28 03:10:25;;;;;;;5.90;3.40;;;;;;;;;;5101912;28;20423;-63
2023/09/28 03:12:51;;;;;;;3.83;3.03;;;;;;;;;;5101854;28;20404;-63
2023/09/28 03:15:20;;;;;;;5.55;3.22;;;;;;;;;;5101647;28;20410;-63
2023/09/28 03:17:46;;;;;;;5.03;2.80;;;;;;;;;;5097752;28;20457;-64
2023/09/28 03:20:14;;;;;;;5.73;2.90;;;;;;;;;;5097837;28;20935;-64
2023/09/28 03:22:43;;;;;;;5.18;3.65;;;;;;;;;;5097199;28;20788;-63
2023/09/28 03:25:12;;;;;;;7.30;3.30;;;;;;;;;;5110501;27;20903;-63
2023/09/28 03:27:41;;;;;;;5.80;3.00;;;;;;;;;;5102924;28;20419;-63
2023/09/28 03:30:09;;;;;;;4.07;3.53;;;;;;;;;;5107114;27;20885;-64
2023/09/28 03:32:37;;;;;;;4.65;3.30;;;;;;;;;;5105022;27;20415;-64
2023/09/28 03:35:03;;;;;;;3.67;3.05;;;;;;;;;;5097985;28;20420;-63
2023/09/28 03:37:30;;;;;;;5.53;3.33;;;;;;;;;;5113848;28;20412;-64
2023/09/28 03:40:00;;;;;;;5.05;3.38;;;;;;;;;;5097288;28;20422;-63
2023/09/28 03:42:27;;;;;;;4.55;3.45;;;;;;;;;;5101066;28;20427;-63
2023/09/28 03:44:54;;;;;;;6.97;3.20;;;;;;;;;;5097461;28;21375;-63
2023/09/28 03:47:21;;;;;;;6.43;3.78;;;;;;;;;;5101012;28;20416;-63
2023/09/28 03:49:48;;;;;;;4.25;3.20;;;;;;;;;;5096617;28;20876;-63
2023/09/28 03:52:15;;;;;;;4.75;3.33;;;;;;;;;;5098983;28;20410;-63
2023/09/28 03:54:42;;;;;;;5.23;3.50;;;;;;;;;;5109286;28;20404;-63
2023/09/28 03:57:11;;;;;;;5.95;3.55;;;;;;;;;;5099312;28;20810;-63
2023/09/28 03:59:38;;;;;;;5.20;3.30;;;;;;;;;;5102722;28;20413;-63
2023/09/28 04:02:05;;;;;;;5.60;3.53;;;;;;;;;;5104716;28;20839;-63
2023/09/28 04:04:31;;;;;;;5.03;3.80;;;;;;;;;;5100033;28;20475;-64
2023/09/28 04:06:59;;;;;;;5.00;3.70;;;;;;;;;;5102148;28;20478;-63
2023/09/28 04:09:26;;;;;;;4.68;3.47;;;;;;;;;;5103134;28;20410;-62
2023/09/28 04:11:53;;;;;;;4.65;3.70;;;;;;;;;;5102601;28;20945;-63
2023/09/28 04:14:22;;;;;;;7.57;4.07;;;;;;;;;;5102403;28;20475;-64
2023/09/28 04:16:49;;;;;;;4.30;3.58;;;;;;;;;;5107126;28;20412;-63
2023/09/28 04:19:16;;;;;;;4.80;3.60;;;;;;;;;;5102849;28;20535;-63
2023/09/28 04:21:43;;;;;;;5.38;3.67;;;;;;;;;;5104198;28;20413;-63
2023/09/28 04:24:10;;;;;;;6.57;3.60;;;;;;;;;;5106018;28;20555;-63
2023/09/28 04:26:37;;;;;;;5.45;3.55;;;;;;;;;;5098875;28;20799;-64
2023/09/28 04:29:04;;;;;;;5.10;3.50;;;;;;;;;;5102218;28;20410;-63
2023/09/28 04:31:32;;;;;;;6.53;3.78;;;;;;;;;;5105310;28;20414;-63
2023/09/28 04:33:59;;;;;;;6.47;3.80;;;;;;;;;;5105093;28;20441;-63
2023/09/28 04:36:26;;;;;;;6.65;4.03;;;;;;;;;;5101588;28;20394;-64
2023/09/28 04:38:53;;;;;;;7.38;3.60;;;;;;;;;;5103234;28;20402;-63
2023/09/28 04:41:20;;;;;;;5.78;3.47;;;;;;;;;;5104060;28;20919;-63
2023/09/28 04:43:47;;;;;;;5.20;3.60;;;;;;;;;;5092833;28;20401;-64
2023/09/28 04:46:14;;;;;;;5.70;3.53;;;;;;;;;;5092457;28;20538;-63
2023/09/28 04:48:43;;;;;;;5.00;3.33;;;;;;;;;;5092448;28;20874;-63
2023/09/28 04:51:10;;;;;;;5.20;3.53;;;;;;;;;;5092628;28;20409;-63
2023/09/28 04:53:37;;;;;;;4.30;3.58;;;;;;;;;;5097191;28;20916;-64
2023/09/28 04:56:10;;;;;;;7.18;3.55;;;;;;;;;;5104748;28;20449;-63
2023/09/28 04:58:37;;;;;;;6.60;3.80;;;;;;;;;;5103842;28;20414;-63
2023/09/28 05:01:04;;;;;;;6.22;3.60;;;;;;;;;;5101398;28;20942;-63
2023/09/28 05:03:31;;;;;;;5.22;3.92;;;;;;;;;;5101449;28;20413;-63
2023/09/28 05:05:59;;;;;;;5.50;3.80;;;;;;;;;;5103363;28;21181;-63
2023/09/28 05:08:27;;;;;;;7.13;3.72;;;;;;;;;;5099774;28;20463;-64
2023/09/28 05:10:54;;;;;;;4.57;3.60;;;;;;;;;;5103388;28;20410;-63
2023/09/28 05:13:21;;;;;;;4.75;4.00;;;;;;;;;;5102068;28;20464;-63
2023/09/28 05:15:48;;;;;;;5.93;3.92;;;;;;;;;;5100640;28;20467;-63
2023/09/28 05:18:16;;;;;;;6.75;4.20;;;;;;;;;;5100947;28;20471;-63
2023/09/28 05:20:43;;;;;;;5.07;4.10;;;;;;;;;;5101475;28;20413;-64
2023/09/28 05:23:11;;;;;;;5.22;4.03;;;;;;;;;;5104314;28;20412;-63
2023/09/28 05:25:38;;;;;;;5.45;4.03;;;;;;;;;;5095480;28;20420;-64
2023/09/28 05:28:05;;;;;;;6.90;3.90;;;;;;;;;;5101045;28;20775;-64
2023/09/28 05:30:32;;;;;;;6.23;4.00;;;;;;;;;;5102622;28;20404;-64
2023/09/28 05:32:59;;;;;;;6.45;3.97;;;;;;;;;;5103675;28;20965;-64
2023/09/28 05:35:26;;;;;;;5.85;4.20;;;;;;;;;;5099826;28;20410;-64
2023/09/28 05:37:53;;;;;;;7.13;4.25;;;;;;;;;;5102066;28;20759;-63
2023/09/28 05:40:22;;;;;;;5.57;4.10;;;;;;;;;;5100264;28;20406;-63
2023/09/28 05:42:49;;;;;;;6.53;4.00;;;;;;;;;;5101694;28;20401;-63
2023/09/28 05:45:16;;;;;;;7.32;4.40;;;;;;;;;;5101311;28;20511;-63
2023/09/28 05:47:43;;;;;;;7.63;4.03;;;;;;;;;;5100852;28;20562;-64
2023/09/28 05:50:11;;;;;;;6.95;4.15;;;;;;;;;;5103696;28;20408;-63
2023/09/28 05:52:38;;;;;;;7.37;4.07;;;;;;;;;;5099924;28;20808;-63
2023/09/28 05:55:05;;;;;;;6.75;4.22;;;;;;;;;;5104237;28;20414;-63
2023/09/28 05:57:34;;;;;;;7.72;4.85;;;;;;;;;;5102866;28;20408;-64
2023/09/28 06:00:07;;;;;;;5.53;4.13;;;;;;;;;;5102329;28;20895;-63
2023/09/28 06:02:34;;;;;;;7.03;4.35;;;;;;;;;;5102415;28;20744;-63
2023/09/28 06:05:01;;;;;;;8.07;4.35;;;;;;;;;;5101838;28;20949;-63
2023/09/28 06:07:28;;;;;;;6.20;4.30;;;;;;;;;;5102622;28;20400;-63
2023/09/28 06:09:55;;;;;;;7.55;4.40;;;;;;;;;;5100466;28;20447;-64
2023/09/28 06:12:22;;;;;;;6.13;4.32;;;;;;;;;;5103543;28;20415;-63
2023/09/28 06:14:50;;;;;;;8.13;4.10;;;;;;;;;;5099419;28;20454;-63
2023/09/28 06:17:18;;;;;;;7.13;4.38;;;;;;;;;;5100664;28;20787;-63
2023/09/28 06:19:45;;;;;;;7.60;4.60;;;;;;;;;;5101880;28;20440;-63
2023/09/28 06:22:12;;;;;;;6.32;4.78;;;;;;;;;;5098341;28;20444;-64
2023/09/28 06:24:40;;;;;;;8.32;4.60;;;;;;;;;;5100975;28;20417;-63
2023/09/28 06:27:07;;;;;;;6.65;4.55;;;;;;;;;;5097833;28;20420;-64
2023/09/28 06:29:34;;;;;;;6.65;4.47;;;;;;;;;;5101219;28;20485;-63
2023/09/28 06:32:03;;;;;;;6.57;4.50;;;;;;;;;;5099213;28;20478;-64
2023/09/28 06:34:30;;;;;;;8.70;5.35;;;;;;;;;;5100646;28;20408;-63
2023/09/28 06:36:57;;;;;;;8.68;5.13;;;;;;;;;;5102043;28;20400;-63
2023/09/28 06:39:24;;;;;;;7.38;5.03;;;;;;;;;;5102073;28;20396;-63
2023/09/28 06:41:51;;;;;;;7.30;5.20;;;;;;;;;;5101707;28;20404;-63
2023/09/28 06:44:18;;;;;;;7.88;5.20;;;;;;;;;;5096243;28;20416;-64
2023/09/28 06:46:45;;;;;;;8.85;5.15;;;;;;;;;;5103398;28;20431;-64
2023/09/28 06:49:14;;;;;;;6.05;5.22;;;;;;;;;;5099291;28;20495;-63
2023/09/28 06:51:42;;;;;;;7.20;5.40;;;;;;;;;;5103385;28;20786;-62
2023/09/28 06:54:09;;;;;;;7.90;5.10;;;;;;;;;;5096854;28;20506;-63
2023/09/28 06:56:36;;;;;;;6.57;5.20;;;;;;;;;;5108354;28;20408;-63
2023/09/28 06:59:04;;;;;;;9.20;5.32;;;;;;;;;;5105297;28;20408;-64
2023/09/28 07:01:31;;;;;;;8.27;5.15;;;;;;;;;;5104177;28;20433;-64
2023/09/28 07:03:58;;;;;;;9.95;5.18;;;;;;;;;;5106716;28;20456;-63
2023/09/28 07:06:26;;;;;;;8.07;5.30;;;;;;;;;;5103247;28;20433;-64
2023/09/28 07:08:54;;;;;;;7.78;5.78;;;;;;;;;;5103458;28;20425;-63
2023/09/28 07:11:21;;;;;;;9.33;5.50;;;;;;;;;;5108147;28;20992;-64
2023/09/28 07:13:48;;;;;;;9.77;5.55;;;;;;;;;;5099412;28;20492;-65
2023/09/28 07:16:15;;;;;;;8.35;5.00;;;;;;;;;;5097493;28;20436;-64
2023/09/28 07:18:42;;;;;;;8.40;4.90;;;;;;;;;;5097912;28;20412;-64
2023/09/28 07:21:10;;;;;;;9.82;4.88;;;;;;;;;;5101356;28;20418;-63
2023/09/28 07:23:41;;;;;;;10.27;5.23;;;;;;;;;;5098797;28;20488;-63
2023/09/28 07:26:14;;;;;;;8.52;4.75;;;;;;;;;;5096992;28;20457;-65
2023/09/28 07:28:41;;;;;;;11.20;4.78;;;;;;;;;;5106129;28;20404;-63
2023/09/28 07:31:08;;;;;;;9.05;5.22;;;;;;;;;;5099485;28;20413;-63
2023/09/28 07:33:36;;;;;;;8.38;5.32;;;;;;;;;;5100497;28;21015;-63
2023/09/28 07:36:05;;;;;;;9.73;5.30;;;;;;;;;;5102969;28;20410;-62
2023/09/28 07:38:33;;;;;;;7.63;4.97;;;;;;;;;;5103362;28;20417;-63
2023/09/28 07:41:01;;;;;;;8.23;5.32;;;;;;;;;;5101578;28;20491;-62
2023/09/28 07:43:29;;;;;;;10.60;5.50;;;;;;;;;;5106568;28;20441;-61
2023/09/28 07:45:56;;;;;;;8.13;4.78;;;;;;;;;;5106025;28;20481;-61
2023/09/28 07:48:24;;;;;;;8.70;5.13;;;;;;;;;;5097565;28;20467;-61
2023/09/28 07:50:51;;;;;;;8.57;5.10;;;;;;;;;;5099201;28;20417;-61
2023/09/28 07:53:18;;;;;;;8.10;5.50;;;;;;;;;;5105260;28;20422;-62
2023/09/28 07:55:45;;;;;;;10.90;5.53;;;;;;;;;;5099265;28;21102;-62
2023/09/28 07:58:15;;;;;;;9.20;5.47;;;;;;;;;;5099583;28;20418;-62
2023/09/28 08:00:43;;;;;;;9.27;5.20;;;;;;;;;;5099688;28;20938;-62
2023/09/28 08:03:10;;;;;;;9.18;4.90;;;;;;;;;;5099181;28;20503;-62
2023/09/28 08:05:37;;;;;;;9.13;5.13;;;;;;;;;;5102072;28;20504;-65
2023/09/28 08:08:05;;;;;;;7.18;4.85;;;;;;;;;;5106764;28;20412;-65
2023/09/28 08:10:32;;;;;;;8.60;5.22;;;;;;;;;;5103011;28;20463;-65
2023/09/28 08:12:59;;;;;;;9.00;5.25;;;;;;;;;;5102170;28;20408;-66
2023/09/28 08:15:28;;;;;;;12.00;5.78;;;;;;;;;;5103451;28;20486;-65
2023/09/28 08:17:56;;;;;;;10.05;5.50;;;;;;;;;;5102813;28;20869;-63
2023/09/28 08:20:26;;;;;;;10.52;5.35;;;;;;;;;;5098783;28;20406;-63
2023/09/28 08:22:53;;;;;;;8.50;5.43;;;;;;;;;;5102456;28;20457;-63
2023/09/28 08:25:20;;;;;;;10.32;5.72;;;;;;;;;;5104367;28;20406;-62
2023/09/28 08:27:48;;;;;;;8.87;5.43;;;;;;;;;;5102903;28;20490;-63
2023/09/28 08:30:15;;;;;;;9.60;5.03;;;;;;;;;;5100740;28;20435;-63
2023/09/28 08:32:43;;;;;;;8.85;4.93;;;;;;;;;;5111287;28;20453;-61
2023/09/28 08:35:11;;;;;;;10.48;5.25;;;;;;;;;;5097901;28;20428;-62
2023/09/28 08:37:38;;;;;;;8.65;4.65;;;;;;;;;;5103973;28;20487;-62
2023/09/28 08:40:06;;;;;;;11.27;5.63;;;;;;;;;;5101177;28;20413;-63
2023/09/28 08:42:34;;;;;;;12.10;5.50;;;;;;;;;;5104926;27;20417;-61
2023/09/28 08:45:02;;;;;;;10.73;5.03;;;;;;;;;;5101447;28;20454;-62
2023/09/28 08:47:32;;;;;;;9.80;5.55;;;;;;;;;;5103919;28;20462;-62
2023/09/28 08:50:01;;;;;;;10.43;5.68;;;;;;;;;;5100271;28;20468;-62
2023/09/28 08:52:30;;;;;;;12.10;5.95;;;;;;;;;;5103662;28;20499;-62
2023/09/28 08:54:58;;;;;;;20.70;12.07;;;;;;;;;;5102689;28;20440;-62
2023/09/28 08:57:25;;;;;;;12.60;5.18;;;;;;;;;;5098501;28;20490;-62
2023/09/28 08:59:53;;;;;;;10.02;4.78;;;;;;;;;;5102704;28;20412;-62
2023/09/28 09:02:20;;;;;;;8.98;4.60;;;;;;;;;;5102777;28;20405;-61
2023/09/28 09:04:48;;;;;;;10.00;4.53;;;;;;;;;;5100466;28;20448;-62
2023/09/28 09:07:17;;;;;;;11.43;4.82;;;;;;;;;;5101572;28;20519;-63
2023/09/28 09:09:45;;;;;;;8.40;4.18;;;;;;;;;;5103350;28;20416;-65
2023/09/28 09:12:12;;;;;;;8.93;4.50;;;;;;;;;;5098994;28;20416;-64
2023/09/28 09:14:39;;;;;;;8.32;3.90;;;;;;;;;;5097757;28;20412;-64
2023/09/28 09:17:08;;;;;;;10.77;5.00;;;;;;;;;;5097504;28;20905;-63
2023/09/28 09:19:35;;;;;;;8.98;4.28;;;;;;;;;;5101614;28;20442;-63
2023/09/28 09:22:04;;;;;;;9.77;4.00;;;;;;;;;;5100160;28;20412;-65
2023/09/28 09:24:32;;;;;;;7.55;4.10;;;;;;;;;;5098741;28;20425;-63
2023/09/28 09:27:00;;;;;;;8.75;4.53;;;;;;;;;;5096242;28;20424;-62
2023/09/28 09:29:27;;;;;;;8.65;4.13;;;;;;;;;;5099438;28;20471;-62
2023/09/28 09:31:54;;;;;;;8.03;4.33;;;;;;;;;;5102943;28;20415;-63
2023/09/28 09:34:22;;;;;;;10.88;4.53;;;;;;;;;;5100804;28;20414;-63
2023/09/28 09:36:53;;;;;;;9.35;4.03;;;;;;;;;;5099929;28;20919;-62
2023/09/28 09:39:23;;;;;;;9.18;4.10;;;;;;;;;;5101288;28;20440;-61
2023/09/28 09:41:52;;;;;;;7.97;3.78;;;;;;;;;;5103068;28;20758;-61
2023/09/28 09:44:20;;;;;;;11.88;4.57;;;;;;;;;;5101609;28;20437;-62
2023/09/28 09:46:48;;;;;;;8.15;3.95;;;;;;;;;;5100586;28;20421;-62
2023/09/28 09:49:16;;;;;;;11.52;4.57;;;;;;;;;;5101437;28;20422;-61
2023/09/28 09:51:46;;;;;;;8.60;4.43;;;;;;;;;;5103871;28;20410;-63
2023/09/28 09:54:14;;;;;;;9.88;5.80;;;;;;;;;;5098737;28;20467;-65
2023/09/28 09:56:44;;;;;;;10.70;5.40;;;;;;;;;;5110183;27;20411;-61
2023/09/28 09:59:15;;;;;;;8.93;4.90;;;;;;;;;;5101206;28;20920;-64
2023/09/28 10:01:42;;;;;;;9.68;5.00;;;;;;;;;;5097715;28;20419;-64
2023/09/28 10:04:12;;;;;;;12.20;5.63;;;;;;;;;;5096467;28;20413;-62
2023/09/28 10:06:40;;;;;;;10.70;5.50;;;;;;;;;;5095086;28;20906;-61
2023/09/28 10:09:10;;;;;;;9.18;4.50;;;;;;;;;;5097234;28;20838;-63
2023/09/28 10:11:39;;;;;;;13.45;4.65;;;;;;;;;;5096616;28;20773;-65
2023/09/28 10:14:08;;;;;;;9.52;4.15;;;;;;;;;;5098643;28;20439;-64
2023/09/28 10:16:37;;;;;;;7.75;3.63;;;;;;;;;;5101649;28;20820;-63
2023/09/28 10:19:05;;;;;;;9.20;4.00;;;;;;;;;;5099733;28;20405;-62
2023/09/28 10:21:34;;;;;;;9.23;4.00;;;;;;;;;;5104041;28;20416;-63
2023/09/28 10:24:08;;;;;;;8.43;3.53;;;;;;;;;;5098441;28;20410;-64
2023/09/28 10:26:36;;;;;;;11.15;4.30;;;;;;;;;;5094364;28;20429;-63
2023/09/28 10:29:03;;;;;;;8.18;3.60;;;;;;;;;;5099249;28;20410;-65
2023/09/28 10:31:30;;;;;;;8.40;4.05;;;;;;;;;;5100313;28;20491;-64
2023/09/28 10:33:59;;;;;;;10.02;3.83;;;;;;;;;;5101904;28;20882;-64
2023/09/28 10:36:27;;;;;;;6.75;3.78;;;;;;;;;;5099881;28;20401;-64
2023/09/28 10:39:14;;;;;;;9.07;3.92;;;;;;;;;;5099530;28;20410;-63
2023/09/28 10:41:44;;;;;;;8.10;3.00;;;;;;;;;;5099692;28;20404;-63
2023/09/28 10:44:13;;;;;;;11.07;4.28;;;;;;;;;;5109835;27;21295;-63
2023/09/28 10:46:41;;;;;;;11.18;3.72;;;;;;;;;;5097122;28;20859;-63
2023/09/28 10:49:10;;;;;;;8.57;3.83;;;;;;;;;;5099221;28;20400;-63
2023/09/28 10:51:37;;;;;;;8.20;3.92;;;;;;;;;;5104362;28;20429;-63
2023/09/28 10:54:06;;;;;;;7.00;3.60;;;;;;;;;;5103393;28;20443;-62
2023/09/28 10:56:33;;;;;;;8.50;3.55;;;;;;;;;;5097279;28;20410;-63
2023/09/28 10:59:04;;;;;;;8.32;3.70;;;;;;;;;;5090826;28;20410;-64
2023/09/28 11:01:32;;;;;;;10.17;3.70;;;;;;;;;;5090270;28;20412;-64
2023/09/28 11:03:59;;;;;;;6.60;3.88;;;;;;;;;;5099295;28;20433;-64
2023/09/28 11:06:27;;;;;;;10.33;4.03;;;;;;;;;;5099816;28;21001;-63
2023/09/28 11:08:57;;;;;;;11.50;4.40;;;;;;;;;;5101142;28;20412;-63
2023/09/28 11:11:25;;;;;;;10.77;3.95;;;;;;;;;;5100213;28;20914;-63
2023/09/28 11:13:52;;;;;;;8.07;3.95;;;;;;;;;;5099245;28;20414;-63
2023/09/28 11:16:20;;;;;;;7.97;3.92;;;;;;;;;;5100182;28;20404;-63
2023/09/28 11:18:48;;;;;;;9.60;3.83;;;;;;;;;;5101842;28;20408;-63
2023/09/28 11:21:15;;;;;;;9.80;4.55;;;;;;;;;;5099578;28;20951;-61
2023/09/28 11:23:45;;;;;;;11.55;4.13;;;;;;;;;;5102424;28;20440;-61
2023/09/28 11:26:13;;;;;;;9.35;4.20;;;;;;;;;;5093918;28;20416;-61
2023/09/28 11:28:40;;;;;;;7.93;4.30;;;;;;;;;;5100933;28;20480;-61
2023/09/28 11:31:11;;;;;;;8.25;4.50;;;;;;;;;;5098817;28;20406;-64
2023/09/28 11:33:39;;;;;;;10.63;4.90;;;;;;;;;;5097225;28;20900;-62
2023/09/28 11:36:07;;;;;;;11.27;4.70;;;;;;;;;;5096481;28;20445;-62
2023/09/28 11:38:34;;;;;;;9.43;4.40;;;;;;;;;;5093453;28;20463;-62
2023/09/28 11:41:03;;;;;;;12.63;4.65;;;;;;;;;;5094567;28;20410;-63
2023/09/28 11:43:33;;;;;;;8.98;4.30;;;;;;;;;;5096168;28;20884;-63
2023/09/28 11:46:01;;;;;;;10.50;4.57;;;;;;;;;;5097027;28;20410;-62
2023/09/28 11:48:28;;;;;;;8.95;4.20;;;;;;;;;;5098470;28;20558;-63
2023/09/28 11:50:56;;;;;;;10.48;4.50;;;;;;;;;;5098614;28;20410;-63
2023/09/28 11:53:24;;;;;;;10.82;4.85;;;;;;;;;;5100782;27;20434;-62
2023/09/28 11:55:51;;;;;;;9.13;4.73;;;;;;;;;;5097235;28;20432;-62
2023/09/28 11:58:22;;;;;;;11.90;4.55;;;;;;;;;;5101074;28;20391;-63
2023/09/28 12:00:50;;;;;;;9.27;4.68;;;;;;;;;;5104387;28;20408;-63
2023/09/28 12:03:18;;;;;;;10.45;4.50;;;;;;;;;;5107305;28;20436;-64
2023/09/28 12:05:46;;;;;;;8.63;4.90;;;;;;;;;;5099423;28;20440;-62
2023/09/28 12:08:13;;;;;;;10.13;4.38;;;;;;;;;;5102285;28;20471;-63
2023/09/28 12:10:40;;;;;;;10.57;5.13;;;;;;;;;;5104286;28;20808;-64
2023/09/28 12:13:07;;;;;;;8.30;4.20;;;;;;;;;;5105599;28;20415;-63
2023/09/28 12:15:37;;;;;;;7.03;3.97;;;;;;;;;;5103765;28;20824;-63
2023/09/28 12:18:05;;;;;;;10.38;4.18;;;;;;;;;;5100961;28;20417;-63
2023/09/28 12:20:32;;;;;;;9.38;4.25;;;;;;;;;;5098948;28;20467;-64
2023/09/28 12:22:59;;;;;;;7.95;4.63;;;;;;;;;;5101112;27;20505;-63
2023/09/28 12:25:28;;;;;;;7.85;4.60;;;;;;;;;;5096812;28;20416;-63
2023/09/28 12:27:57;;;;;;;12.27;4.57;;;;;;;;;;5099327;27;20450;-63
2023/09/28 12:30:25;;;;;;;8.52;4.15;;;;;;;;;;5095188;28;20422;-64
2023/09/28 12:32:54;;;;;;;10.50;4.18;;;;;;;;;;5101646;27;20408;-63
2023/09/28 12:35:21;;;;;;;8.18;4.43;;;;;;;;;;5094411;28;20880;-63
2023/09/28 12:37:49;;;;;;;11.90;4.75;;;;;;;;;;5101583;28;20445;-63
2023/09/28 12:40:17;;;;;;;8.20;4.10;;;;;;;;;;5094198;28;20410;-63
2023/09/28 12:42:45;;;;;;;7.90;3.83;;;;;;;;;;5100976;28;20846;-63
2023/09/28 12:45:12;;;;;;;9.02;3.90;;;;;;;;;;5093729;28;20920;-63
2023/09/28 12:47:39;;;;;;;8.05;4.28;;;;;;;;;;5100856;27;20421;-63
2023/09/28 12:50:08;;;;;;;8.57;4.35;;;;;;;;;;5093689;28;20416;-63
2023/09/28 12:52:35;;;;;;;7.80;3.90;;;;;;;;;;5100145;27;20822;-63
2023/09/28 12:55:03;;;;;;;9.45;3.90;;;;;;;;;;5095700;28;20409;-63
2023/09/28 12:57:30;;;;;;;7.72;3.38;;;;;;;;;;5100187;28;20769;-64
2023/09/28 12:59:57;;;;;;;6.00;3.63;;;;;;;;;;5104403;28;20435;-63
2023/09/28 13:02:25;;;;;;;8.85;3.50;;;;;;;;;;5102682;28;20410;-63
2023/09/28 13:04:53;;;;;;;6.35;3.22;;;;;;;;;;5101204;28;20441;-64
2023/09/28 13:07:21;;;;;;;6.60;3.40;;;;;;;;;;5103178;28;20408;-64
2023/09/28 13:09:48;;;;;;;7.83;3.67;;;;;;;;;;5096592;28;20412;-66
2023/09/28 13:12:15;;;;;;;8.18;3.63;;;;;;;;;;5108592;28;20423;-62
2023/09/28 13:14:43;;;;;;;6.25;3.53;;;;;;;;;;5098173;28;20396;-62
2023/09/28 13:17:11;;;;;;;7.87;3.40;;;;;;;;;;5096254;28;20777;-61
2023/09/28 13:19:40;;;;;;;9.50;4.00;;;;;;;;;;5098955;28;20422;-62
2023/09/28 13:22:07;;;;;;;9.25;3.60;;;;;;;;;;5101023;28;20947;-63
2023/09/28 13:24:36;;;;;;;8.70;3.70;;;;;;;;;;5104660;28;21371;-63
2023/09/28 13:27:05;;;;;;;10.07;3.83;;;;;;;;;;5099654;28;20460;-62
2023/09/28 13:29:32;;;;;;;8.45;3.50;;;;;;;;;;5102283;28;20467;-63
2023/09/28 13:32:00;;;;;;;6.28;3.65;;;;;;;;;;5103740;28;20797;-62
2023/09/28 13:34:27;;;;;;;14.00;3.75;;;;;;;;;;5101130;28;20440;-62
2023/09/28 13:36:55;;;;;;;9.73;3.60;;;;;;;;;;5101973;28;20406;-62
2023/09/28 13:39:27;;;;;;;11.25;3.50;;;;;;;;;;5103381;28;20400;-62
2023/09/28 13:41:58;;;;;;;8.57;3.50;;;;;;;;;;5102651;28;20404;-62
2023/09/28 13:44:25;;;;;;;8.93;3.67;;;;;;;;;;5091483;28;20409;-64
2023/09/28 13:46:53;;;;;;;7.97;3.33;;;;;;;;;;5099066;28;20404;-64
2023/09/28 13:49:20;;;;;;;7.63;3.28;;;;;;;;;;5100077;28;20954;-64
2023/09/28 13:51:48;;;;;;;7.50;3.85;;;;;;;;;;5101621;28;20777;-63
2023/09/28 13:54:15;;;;;;;9.40;4.10;;;;;;;;;;5102450;28;22184;-64
2023/09/28 13:56:44;;;;;;;8.77;3.90;;;;;;;;;;5096891;28;20410;-63
2023/09/28 13:59:12;;;;;;;7.28;3.55;;;;;;;;;;5105466;28;20433;-64
2023/09/28 14:01:43;;;;;;;8.70;3.90;;;;;;;;;;5092979;28;20397;-64
2023/09/28 14:04:10;;;;;;;8.93;3.60;;;;;;;;;;5093792;28;20497;-63
2023/09/28 14:06:37;;;;;;;9.07;3.90;;;;;;;;;;5092248;28;20437;-63
2023/09/28 14:09:10;;;;;;;10.73;4.20;;;;;;;;;;5091227;28;20425;-64
2023/09/28 14:11:38;;;;;;;10.65;4.03;;;;;;;;;;5098799;28;20408;-63
2023/09/28 14:14:05;;;;;;;9.30;4.38;;;;;;;;;;5098116;28;20418;-63
2023/09/28 14:16:34;;;;;;;8.03;3.80;;;;;;;;;;5098902;28;20505;-63
2023/09/28 14:19:01;;;;;;;10.98;3.80;;;;;;;;;;5101378;28;21038;-63
2023/09/28 14:21:28;;;;;;;9.82;3.80;;;;;;;;;;5100392;28;20422;-64
2023/09/28 14:23:57;;;;;;;7.45;3.60;;;;;;;;;;5100724;28;20413;-61
2023/09/28 14:26:24;;;;;;;8.43;3.60;;;;;;;;;;5092067;28;20413;-64
2023/09/28 14:28:51;;;;;;;11.05;4.07;;;;;;;;;;5101484;28;20412;-64
2023/09/28 14:31:19;;;;;;;11.25;3.70;;;;;;;;;;5101394;28;20442;-61
2023/09/28 14:33:48;;;;;;;9.63;3.75;;;;;;;;;;5097630;28;20418;-62
2023/09/28 14:36:16;;;;;;;8.70;4.10;;;;;;;;;;5097430;28;20954;-61
2023/09/28 14:38:43;;;;;;;6.70;3.53;;;;;;;;;;5101623;28;20732;-61
2023/09/28 14:41:10;;;;;;;9.18;3.92;;;;;;;;;;5100106;28;20410;-61
2023/09/28 14:43:37;;;;;;;9.50;3.73;;;;;;;;;;5098636;28;20414;-61